createdAt,value
2023-01-11T00:02:17.145Z,9.60
2023-01-11T00:05:19.086Z,9.23
2023-01-11T00:08:22.117Z,8.82
2023-01-11T00:11:24.449Z,9.53
2023-01-11T00:14:26.794Z,6.82
2023-01-11T00:17:28.972Z,8.52
2023-01-11T00:20:30.958Z,8.88
2023-01-11T00:23:33.524Z,9.23
2023-01-11T00:26:35.815Z,10.10
2023-01-11T00:29:37.715Z,8.35
2023-01-11T00:32:39.971Z,9.27
2023-01-11T00:35:41.888Z,8.32
2023-01-11T00:38:43.779Z,7.50
2023-01-11T00:42:04.968Z,7.30
2023-01-11T00:45:25.849Z,7.38
2023-01-11T00:48:28.177Z,7.55
2023-01-11T00:51:30.028Z,9.15
2023-01-11T00:54:31.957Z,9.02
2023-01-11T00:57:34.281Z,7.65
2023-01-11T01:00:36.689Z,7.68
2023-01-11T01:03:39.023Z,6.10
2023-01-11T01:06:41.097Z,6.97
2023-01-11T01:09:43.076Z,6.72
2023-01-11T01:13:03.684Z,7.90
2023-01-11T01:16:06.161Z,7.30
2023-01-11T01:19:08.822Z,8.18
2023-01-11T01:22:10.771Z,8.45
2023-01-11T01:25:13.089Z,6.90
2023-01-11T01:28:14.989Z,9.13
2023-01-11T01:31:16.994Z,5.88
2023-01-11T01:34:19.583Z,7.77
2023-01-11T01:37:21.883Z,6.47
2023-01-11T01:40:23.998Z,8.05
2023-01-11T01:43:46.162Z,6.27
2023-01-11T01:46:49.383Z,6.80
2023-01-11T01:49:51.656Z,6.85
2023-01-11T01:52:54.851Z,9.63
2023-01-11T01:55:58.196Z,6.68
2023-01-11T01:59:02.253Z,6.50
2023-01-11T02:02:04.680Z,7.45
2023-01-11T02:05:06.891Z,8.40
2023-01-11T02:08:11.159Z,9.52
2023-01-11T02:11:32.122Z,7.80
2023-01-11T02:14:34.636Z,5.90
2023-01-11T02:17:36.533Z,7.50
2023-01-11T02:20:57.123Z,6.43
2023-01-11T02:24:17.912Z,7.88
2023-01-11T02:27:29.650Z,7.05
2023-01-11T02:30:34.621Z,7.97
2023-01-11T02:33:42.282Z,6.40
2023-01-11T02:36:56.337Z,7.17
2023-01-11T02:39:59.976Z,11.40
2023-01-11T02:43:26.748Z,7.78
2023-01-11T02:46:30.555Z,8.70
2023-01-11T02:49:36.710Z,5.75
2023-01-11T02:52:40.177Z,7.45
2023-01-11T02:55:43.351Z,7.45
2023-01-11T02:58:45.670Z,9.20
2023-01-11T03:01:48.679Z,9.70
2023-01-11T03:04:50.723Z,9.07
2023-01-11T03:08:02.446Z,9.27
2023-01-11T03:11:08.149Z,8.23
2023-01-11T03:14:24.654Z,8.73
2023-01-11T03:17:56.621Z,9.23
2023-01-11T03:21:16.698Z,9.23
2023-01-11T03:24:33.813Z,11.20
2023-01-11T03:27:41.966Z,12.15
2023-01-11T03:30:52.669Z,9.73
2023-01-11T03:34:05.811Z,13.00
2023-01-11T03:37:19.135Z,11.70
2023-01-11T03:40:22.292Z,11.10
2023-01-11T03:43:24.293Z,12.48
2023-01-11T03:46:31.315Z,8.98
2023-01-11T03:49:36.280Z,9.73
2023-01-11T03:52:38.787Z,8.43
2023-01-11T03:55:41.265Z,7.03
2023-01-11T03:58:43.169Z,7.55
2023-01-11T04:01:45.333Z,7.28
2023-01-11T04:04:47.440Z,9.10
2023-01-11T04:07:49.441Z,9.48
2023-01-11T04:10:51.857Z,8.60
2023-01-11T04:13:54.238Z,7.93
2023-01-11T04:16:56.254Z,9.30
2023-01-11T04:19:58.204Z,9.03
2023-01-11T04:23:00.535Z,9.93
2023-01-11T04:26:02.542Z,8.98
2023-01-11T04:29:04.905Z,9.63
2023-01-11T04:32:07.260Z,10.88
2023-01-11T04:35:09.822Z,9.65
2023-01-11T04:38:12.032Z,9.68
2023-01-11T04:41:32.678Z,8.00
2023-01-11T04:44:34.916Z,10.75
2023-01-11T04:47:36.836Z,10.25
2023-01-11T04:50:38.945Z,10.93
2023-01-11T04:53:41.344Z,10.27
2023-01-11T04:56:43.605Z,10.48
2023-01-11T04:59:48.802Z,9.68
2023-01-11T05:02:50.797Z,9.85
2023-01-11T05:05:56.656Z,11.15
2023-01-11T05:08:58.807Z,10.50
2023-01-11T05:12:00.811Z,11.30
2023-01-11T05:15:03.130Z,9.35
2023-01-11T05:18:06.009Z,9.27
2023-01-11T05:21:08.844Z,10.20
2023-01-11T05:24:12.370Z,11.73
2023-01-11T05:27:14.415Z,9.60
2023-01-11T05:30:16.653Z,11.88
2023-01-11T05:33:19.892Z,12.20
2023-01-11T05:36:22.249Z,10.32
2023-01-11T05:39:55.073Z,14.65
2023-01-11T05:42:59.059Z,13.10
2023-01-11T05:46:01.739Z,12.30
2023-01-11T05:49:03.966Z,12.75
2023-01-11T05:52:06.598Z,12.23
2023-01-11T05:55:09.026Z,14.52
2023-01-11T05:58:11.184Z,17.20
2023-01-11T06:01:13.365Z,19.17
2023-01-11T06:04:15.481Z,15.90
2023-01-11T06:07:17.838Z,13.00
2023-01-11T06:10:26.773Z,13.43
2023-01-11T06:13:28.901Z,11.90
2023-01-11T06:16:31.504Z,11.75
2023-01-11T06:19:33.568Z,13.35
2023-01-11T06:22:36.062Z,12.97
2023-01-11T06:25:38.175Z,9.48
2023-01-11T06:28:40.813Z,10.38
2023-01-11T06:31:43.000Z,9.27
2023-01-11T06:34:45.371Z,9.52
2023-01-11T06:37:47.641Z,12.45
2023-01-11T06:40:56.776Z,12.10
2023-01-11T06:43:59.299Z,22.13
2023-01-11T06:47:01.907Z,26.73
2023-01-11T06:50:04.702Z,31.42
2023-01-11T06:53:06.749Z,36.03
2023-01-11T06:56:10.936Z,40.47
2023-01-11T06:59:13.049Z,34.42
2023-01-11T07:02:18.431Z,28.75
2023-01-11T07:05:20.868Z,34.30
2023-01-11T07:08:23.791Z,33.30
2023-01-11T07:11:26.872Z,25.02
2023-01-11T07:14:29.913Z,22.97
2023-01-11T07:17:34.687Z,20.77
2023-01-11T07:20:37.377Z,21.00
2023-01-11T07:23:39.593Z,18.97
2023-01-11T07:26:42.139Z,19.65
2023-01-11T07:29:44.483Z,16.80
2023-01-11T07:32:46.585Z,17.05
2023-01-11T07:35:49.385Z,16.73
2023-01-11T07:38:51.688Z,19.38
2023-01-11T07:42:14.627Z,19.08
2023-01-11T07:45:17.412Z,22.17
2023-01-11T07:48:26.289Z,17.58
2023-01-11T07:51:28.660Z,15.70
2023-01-11T07:54:30.779Z,16.33
2023-01-11T07:57:34.299Z,18.02
2023-01-11T08:00:37.105Z,19.70
2023-01-11T08:03:39.625Z,24.08
2023-01-11T08:06:41.832Z,27.20
2023-01-11T08:09:44.298Z,26.17
2023-01-11T08:13:05.900Z,24.77
2023-01-11T08:16:08.506Z,29.00
2023-01-11T08:19:10.587Z,25.67
2023-01-11T08:22:13.188Z,28.15
2023-01-11T08:25:15.564Z,25.07
2023-01-11T08:28:17.715Z,22.40
2023-01-11T08:31:20.045Z,22.25
2023-01-11T08:34:22.116Z,22.77
2023-01-11T08:37:24.336Z,25.45
2023-01-11T08:40:26.878Z,21.77
2023-01-11T08:43:31.629Z,26.45
2023-01-11T08:46:34.358Z,29.70
2023-01-11T08:49:36.491Z,31.58
2023-01-11T08:52:38.622Z,20.58
2023-01-11T08:55:43.272Z,18.07
2023-01-11T08:58:45.671Z,12.77
2023-01-11T09:01:48.073Z,14.85
2023-01-11T09:04:50.529Z,13.48
2023-01-11T09:07:55.804Z,13.98
2023-01-11T09:10:59.998Z,18.90
2023-01-11T09:14:02.123Z,16.58
2023-01-11T09:17:04.556Z,12.10
2023-01-11T09:20:07.003Z,20.17
2023-01-11T09:23:09.122Z,15.88
2023-01-11T09:26:12.141Z,14.47
2023-01-11T09:29:14.306Z,16.73
2023-01-11T09:32:16.821Z,18.13
2023-01-11T09:35:19.425Z,15.77
2023-01-11T09:38:21.796Z,17.00
2023-01-11T09:41:24.355Z,19.42
2023-01-11T09:44:27.508Z,18.88
2023-01-11T09:47:42.231Z,22.13
2023-01-11T09:50:45.677Z,19.65
2023-01-11T09:53:50.240Z,21.98
2023-01-11T09:57:01.895Z,22.17
2023-01-11T10:00:08.265Z,21.13
2023-01-11T10:03:13.697Z,24.60
2023-01-11T10:06:21.209Z,26.60
2023-01-11T10:18:32.085Z,18.20
2023-01-11T10:20:27.726Z,17.63
2023-01-11T10:23:37.845Z,15.77
2023-01-11T10:26:41.499Z,13.13
2023-01-11T10:30:06.317Z,10.83
2023-01-11T10:33:45.406Z,8.37
2023-01-11T10:37:18.006Z,7.78
2023-01-11T10:40:35.375Z,7.78
2023-01-11T10:43:40.423Z,7.25
2023-01-11T10:46:44.699Z,7.43
2023-01-11T10:49:48.956Z,6.03
2023-01-11T10:52:53.661Z,7.13
2023-01-11T10:56:08.173Z,6.07
2023-01-11T10:59:15.645Z,7.60
2023-01-11T11:02:30.145Z,5.53
2023-01-11T11:05:33.342Z,8.48
2023-01-11T11:08:38.207Z,7.95
2023-01-11T11:11:49.218Z,5.47
2023-01-11T11:15:11.214Z,6.20
2023-01-11T11:18:13.248Z,5.07
2023-01-11T11:21:19.465Z,5.72
2023-01-11T11:24:22.847Z,6.65
2023-01-11T11:27:27.934Z,6.40
2023-01-11T11:30:38.281Z,6.57
2023-01-11T11:33:40.453Z,6.25
2023-01-11T11:36:45.917Z,5.68
2023-01-11T11:39:51.220Z,5.97
2023-01-11T11:43:07.598Z,5.13
2023-01-11T11:46:19.537Z,5.87
2023-01-11T11:49:22.256Z,5.97
2023-01-11T11:52:24.301Z,7.60
2023-01-11T11:55:30.815Z,6.65
2023-01-11T11:58:33.209Z,6.17
2023-01-11T12:01:36.590Z,4.70
2023-01-11T12:04:47.317Z,7.75
2023-01-11T12:07:55.207Z,5.65
2023-01-11T12:10:58.509Z,6.25
2023-01-11T12:14:02.320Z,6.83
2023-01-11T12:17:24.455Z,4.63
2023-01-11T12:20:27.138Z,4.45
2023-01-11T12:23:29.604Z,5.35
2023-01-11T12:26:33.825Z,5.28
2023-01-11T12:29:39.935Z,5.60
2023-01-11T12:32:49.067Z,5.17
2023-01-11T12:36:10.775Z,5.28
2023-01-11T12:39:18.906Z,4.38
2023-01-11T12:42:33.190Z,5.13
2023-01-11T12:45:45.406Z,5.27
2023-01-11T12:48:49.775Z,5.60
2023-01-11T12:52:15.352Z,4.80
2023-01-11T12:55:33.274Z,6.50
2023-01-11T12:58:40.507Z,5.78
2023-01-11T13:01:48.681Z,5.63
2023-01-11T13:05:13.888Z,5.47
2023-01-11T13:08:29.000Z,5.32
2023-01-11T13:11:37.083Z,4.25
2023-01-11T13:14:42.432Z,5.93
2023-01-11T13:17:52.929Z,4.40
2023-01-11T13:21:01.812Z,4.97
2023-01-11T13:24:18.270Z,7.53
2023-01-11T13:27:24.480Z,5.15
2023-01-11T13:30:26.656Z,7.00
2023-01-11T13:33:31.059Z,5.43
2023-01-11T13:36:40.583Z,6.30
2023-01-11T13:39:48.288Z,10.73
2023-01-11T13:43:10.678Z,4.60
2023-01-11T13:46:31.182Z,6.07
2023-01-11T13:50:02.826Z,6.07
2023-01-11T13:53:09.774Z,5.47
2023-01-11T13:56:18.065Z,4.75
2023-01-11T13:59:22.098Z,6.78
2023-01-11T14:02:30.791Z,7.43
2023-01-11T14:05:38.055Z,5.37
2023-01-11T14:08:44.195Z,11.20
2023-01-11T14:11:46.388Z,9.38
2023-01-11T14:14:58.035Z,6.28
2023-01-11T14:18:20.958Z,10.77
2023-01-11T14:21:25.352Z,5.97
2023-01-11T14:24:27.489Z,6.70
2023-01-11T14:27:59.045Z,6.43
2023-01-11T14:31:19.702Z,11.70
2023-01-11T14:34:35.235Z,9.82
2023-01-11T14:37:50.007Z,18.03
2023-01-11T14:40:52.534Z,11.33
2023-01-11T14:44:04.203Z,15.55
2023-01-11T14:47:12.779Z,14.43
2023-01-11T14:50:35.896Z,13.75
2023-01-11T14:53:39.867Z,11.90
2023-01-11T14:56:45.170Z,21.93
2023-01-11T14:59:47.545Z,15.73
2023-01-11T15:02:52.271Z,14.73
2023-01-11T15:06:13.772Z,16.15
2023-01-11T15:09:35.782Z,19.20
2023-01-11T15:12:38.632Z,18.27
2023-01-11T15:15:59.097Z,21.50
2023-01-11T15:19:02.209Z,18.77
2023-01-11T15:22:04.889Z,15.80
2023-01-11T15:25:08.398Z,16.92
2023-01-11T15:28:29.782Z,14.05
2023-01-11T15:31:34.087Z,15.95
2023-01-11T15:34:39.363Z,19.23
2023-01-11T15:37:41.425Z,15.35
2023-01-11T15:40:43.635Z,18.20
2023-01-11T15:43:55.393Z,27.65
2023-01-11T15:47:05.621Z,25.43
2023-01-11T15:50:10.882Z,32.58
2023-01-11T15:53:27.769Z,43.83
2023-01-11T15:56:35.715Z,42.08
2023-01-11T15:59:38.120Z,43.80
2023-01-11T16:02:40.140Z,67.32
2023-01-11T16:05:44.111Z,83.72
2023-01-11T16:08:56.343Z,70.30
2023-01-11T16:12:13.648Z,82.05
2023-01-11T16:15:16.339Z,67.95
2023-01-11T16:18:25.786Z,66.35
2023-01-11T16:21:31.061Z,48.28
2023-01-11T16:24:33.686Z,47.10
2023-01-11T16:27:36.239Z,46.13
2023-01-11T16:30:38.465Z,46.23
2023-01-11T16:33:41.125Z,43.47
2023-01-11T16:36:48.905Z,37.97
2023-01-11T16:39:52.526Z,40.23
2023-01-11T16:42:56.050Z,50.05
2023-01-11T16:45:58.741Z,42.75
2023-01-11T16:49:09.747Z,48.13
2023-01-11T16:52:27.215Z,45.33
2023-01-11T16:55:36.865Z,43.20
2023-01-11T16:58:40.332Z,47.97
2023-01-11T17:01:48.711Z,56.03
2023-01-11T17:04:51.082Z,56.05
2023-01-11T17:07:53.065Z,54.47
2023-01-11T17:10:56.398Z,64.67
2023-01-11T17:14:01.473Z,53.92
2023-01-11T17:17:04.994Z,54.00
2023-01-11T17:20:23.098Z,64.90
2023-01-11T17:23:26.144Z,78.68
2023-01-11T17:26:29.503Z,80.93
2023-01-11T17:29:40.672Z,72.32
2023-01-11T17:32:44.227Z,74.20
2023-01-11T17:35:46.715Z,66.25
2023-01-11T17:38:48.931Z,72.40
2023-01-11T17:42:09.494Z,68.93
2023-01-11T17:45:21.670Z,63.40
2023-01-11T17:48:23.756Z,73.40
2023-01-11T17:51:26.403Z,73.55
2023-01-11T17:54:28.423Z,75.72
2023-01-11T17:57:30.781Z,95.05
2023-01-11T18:00:33.226Z,65.18
2023-01-11T18:03:39.191Z,77.20
2023-01-11T18:06:41.734Z,73.93
2023-01-11T18:09:47.373Z,85.45
2023-01-11T18:12:50.183Z,129.53
2023-01-11T18:15:52.337Z,124.40
2023-01-11T18:18:54.607Z,102.93
2023-01-11T18:21:56.603Z,82.75
2023-01-11T18:25:04.300Z,95.60
2023-01-11T18:28:26.910Z,81.65
2023-01-11T18:31:29.264Z,88.18
2023-01-11T18:34:31.599Z,94.93
2023-01-11T18:37:33.679Z,82.70
2023-01-11T18:40:35.797Z,96.78
2023-01-11T18:43:37.717Z,82.00
2023-01-11T18:46:39.715Z,73.22
2023-01-11T18:49:42.223Z,64.55
2023-01-11T18:52:44.768Z,61.40
2023-01-11T18:55:46.669Z,60.05
2023-01-11T18:58:48.614Z,73.95
2023-01-11T19:02:01.308Z,62.15
2023-01-11T19:05:08.801Z,58.03
2023-01-11T19:08:10.922Z,71.75
2023-01-11T19:11:14.949Z,68.40
2023-01-11T19:14:17.278Z,71.80
2023-01-11T19:17:19.362Z,70.78
2023-01-11T19:20:21.714Z,83.45
2023-01-11T19:26:37.810Z,100.95
2023-01-11T19:29:40.101Z,100.45
2023-01-11T19:32:42.116Z,99.43
2023-01-11T19:35:44.574Z,95.90
2023-01-11T19:38:46.978Z,95.93
2023-01-11T19:41:54.880Z,70.18
2023-01-11T19:44:57.540Z,68.07
2023-01-11T19:47:59.533Z,64.35
2023-01-11T19:51:02.390Z,68.85
2023-01-11T19:54:04.987Z,70.13
2023-01-11T19:57:08.032Z,72.65
2023-01-11T20:00:12.879Z,67.80
2023-01-11T20:03:16.304Z,71.88
2023-01-11T20:06:18.247Z,71.90
2023-01-11T20:09:20.494Z,73.65
2023-01-11T20:12:22.984Z,71.75
2023-01-11T20:15:25.362Z,75.50
2023-01-11T20:18:27.866Z,84.63
2023-01-11T20:21:31.638Z,93.07
2023-01-11T20:24:34.078Z,104.72
2023-01-11T20:27:36.420Z,85.07
2023-01-11T20:30:40.211Z,97.28
2023-01-11T20:33:42.695Z,99.78
2023-01-11T20:36:44.772Z,106.53
2023-01-11T20:39:47.215Z,93.63
2023-01-11T20:42:49.140Z,94.63
2023-01-11T20:45:57.428Z,85.37
2023-01-11T20:48:59.878Z,82.72
2023-01-11T20:52:02.401Z,76.53
2023-01-11T20:55:04.474Z,80.18
2023-01-11T20:58:06.841Z,68.05
2023-01-11T21:01:09.490Z,69.82
2023-01-11T21:04:11.744Z,70.03
2023-01-11T21:07:13.775Z,73.07
2023-01-11T21:10:15.984Z,88.45
2023-01-11T21:13:17.960Z,144.98
2023-01-11T21:16:19.976Z,132.90
2023-01-11T21:19:22.182Z,106.80
2023-01-11T21:22:24.557Z,69.90
2023-01-11T21:25:26.507Z,73.72
2023-01-11T21:28:28.586Z,70.70
2023-01-11T21:31:31.787Z,72.22
2023-01-11T21:34:33.959Z,84.43
2023-01-11T21:37:36.327Z,73.50
2023-01-11T21:40:38.706Z,71.18
2023-01-11T21:43:42.414Z,69.60
2023-01-11T21:46:44.987Z,63.20
2023-01-11T21:49:47.517Z,68.68
2023-01-11T21:52:49.933Z,67.13
2023-01-11T21:55:52.245Z,71.60
2023-01-11T21:58:54.575Z,68.95
2023-01-11T22:01:56.648Z,70.38
2023-01-11T22:04:59.574Z,73.07
2023-01-11T22:08:02.058Z,67.73
2023-01-11T22:11:04.991Z,71.38
2023-01-11T22:14:08.635Z,73.25
2023-01-11T22:17:10.750Z,70.87
2023-01-11T22:20:15.334Z,64.35
2023-01-11T22:23:17.729Z,62.95
2023-01-11T22:26:20.077Z,57.45
2023-01-11T22:29:22.494Z,59.17
2023-01-11T22:32:24.664Z,58.38
2023-01-11T22:35:27.036Z,56.53
2023-01-11T22:38:29.074Z,63.63
2023-01-11T22:41:31.590Z,73.35
2023-01-11T22:44:33.957Z,64.85
2023-01-11T22:47:35.901Z,64.93
2023-01-11T22:50:38.383Z,66.55
2023-01-11T22:53:41.147Z,69.78
2023-01-11T22:56:43.273Z,72.10
2023-01-11T22:59:45.304Z,83.78
2023-01-11T23:02:47.748Z,77.22
2023-01-11T23:05:50.258Z,77.40
2023-01-11T23:08:52.251Z,73.23
2023-01-11T23:12:13.037Z,72.35
2023-01-11T23:15:14.994Z,71.05
2023-01-11T23:18:17.149Z,73.33
2023-01-11T23:21:20.392Z,66.57
2023-01-11T23:24:22.517Z,68.40
2023-01-11T23:27:24.882Z,69.97
2023-01-11T23:30:26.859Z,70.18
2023-01-11T23:33:29.221Z,62.35
2023-01-11T23:36:34.861Z,64.70
2023-01-11T23:39:36.843Z,63.70
2023-01-11T23:42:39.325Z,58.70
2023-01-11T23:45:41.671Z,61.42
2023-01-11T23:48:44.136Z,62.33
2023-01-11T23:51:46.074Z,63.10
2023-01-11T23:54:48.132Z,71.88
2023-01-11T23:58:09.051Z,70.68
